sensor_id;sensor_type;location;lat;lon;timestamp;P1;durP1;ratioP1;P2;durP2;ratioP2
50379;SDS011;37474;59.468;18.040;2023-07-09T00:02:04;4.75;;;3.20;;
50379;SDS011;37474;59.468;18.040;2023-07-09T00:04:33;7.07;;;3.50;;
50379;SDS011;37474;59.468;18.040;2023-07-09T00:07:03;4.15;;;3.22;;
50379;SDS011;37474;59.468;18.040;2023-07-09T00:09:33;6.70;;;3.33;;
50379;SDS011;37474;59.468;18.040;2023-07-09T00:12:02;4.47;;;3.40;;
50379;SDS011;37474;59.468;18.040;2023-07-09T00:14:31;3.58;;;3.03;;
50379;SDS011;37474;59.468;18.040;2023-07-09T00:16:59;4.72;;;3.45;;
50379;SDS011;37474;59.468;18.040;2023-07-09T00:21:58;5.03;;;2.85;;
50379;SDS011;37474;59.468;18.040;2023-07-09T00:24:28;5.30;;;3.28;;
50379;SDS011;37474;59.468;18.040;2023-07-09T00:29:26;3.38;;;2.97;;
50379;SDS011;37474;59.468;18.040;2023-07-09T00:31:54;4.35;;;2.97;;
50379;SDS011;37474;59.468;18.040;2023-07-09T00:34:23;4.47;;;2.80;;
50379;SDS011;37474;59.468;18.040;2023-07-09T00:36:52;5.28;;;3.00;;
50379;SDS011;37474;59.468;18.040;2023-07-09T00:39:21;3.45;;;3.15;;
50379;SDS011;37474;59.468;18.040;2023-07-09T00:41:52;4.38;;;3.22;;
50379;SDS011;37474;59.468;18.040;2023-07-09T00:44:23;6.57;;;3.20;;
50379;SDS011;37474;59.468;18.040;2023-07-09T00:47:14;4.63;;;2.83;;
50379;SDS011;37474;59.468;18.040;2023-07-09T00:49:48;7.93;;;3.10;;
50379;SDS011;37474;59.468;18.040;2023-07-09T00:52:22;6.00;;;3.00;;
50379;SDS011;37474;59.468;18.040;2023-07-09T00:54:58;4.57;;;2.67;;
50379;SDS011;37474;59.468;18.040;2023-07-09T00:57:37;4.83;;;2.80;;
50379;SDS011;37474;59.468;18.040;2023-07-09T01:00:09;4.27;;;3.30;;
50379;SDS011;37474;59.468;18.040;2023-07-09T01:02:43;5.05;;;3.17;;
50379;SDS011;37474;59.468;18.040;2023-07-09T01:05:15;4.38;;;3.10;;
50379;SDS011;37474;59.468;18.040;2023-07-09T01:07:47;6.03;;;3.20;;
50379;SDS011;37474;59.468;18.040;2023-07-09T01:10:16;4.47;;;3.10;;
50379;SDS011;37474;59.468;18.040;2023-07-09T01:12:46;8.05;;;2.97;;
50379;SDS011;37474;59.468;18.040;2023-07-09T01:15:17;5.80;;;2.80;;
50379;SDS011;37474;59.468;18.040;2023-07-09T01:17:46;6.63;;;2.80;;
50379;SDS011;37474;59.468;18.040;2023-07-09T01:20:20;3.63;;;2.80;;
50379;SDS011;37474;59.468;18.040;2023-07-09T01:22:51;4.40;;;3.03;;
50379;SDS011;37474;59.468;18.040;2023-07-09T01:25:23;3.30;;;3.00;;
50379;SDS011;37474;59.468;18.040;2023-07-09T01:27:52;3.57;;;2.70;;
50379;SDS011;37474;59.468;18.040;2023-07-09T01:30:23;5.23;;;2.80;;
50379;SDS011;37474;59.468;18.040;2023-07-09T01:32:56;3.97;;;2.63;;
50379;SDS011;37474;59.468;18.040;2023-07-09T01:35:26;4.90;;;2.80;;
50379;SDS011;37474;59.468;18.040;2023-07-09T01:37:57;5.15;;;2.92;;
50379;SDS011;37474;59.468;18.040;2023-07-09T01:40:26;5.00;;;2.70;;
50379;SDS011;37474;59.468;18.040;2023-07-09T01:43:00;3.30;;;2.70;;
50379;SDS011;37474;59.468;18.040;2023-07-09T01:45:33;6.00;;;2.80;;
50379;SDS011;37474;59.468;18.040;2023-07-09T01:48:03;5.70;;;2.53;;
50379;SDS011;37474;59.468;18.040;2023-07-09T01:50:33;4.78;;;2.58;;
50379;SDS011;37474;59.468;18.040;2023-07-09T01:53:03;4.20;;;2.97;;
50379;SDS011;37474;59.468;18.040;2023-07-09T01:55:32;5.97;;;2.80;;
50379;SDS011;37474;59.468;18.040;2023-07-09T01:58:01;3.67;;;2.90;;
50379;SDS011;37474;59.468;18.040;2023-07-09T02:00:33;3.83;;;2.83;;
50379;SDS011;37474;59.468;18.040;2023-07-09T02:03:03;3.17;;;2.73;;
50379;SDS011;37474;59.468;18.040;2023-07-09T02:05:32;2.90;;;2.60;;
50379;SDS011;37474;59.468;18.040;2023-07-09T02:08:02;2.80;;;2.50;;
50379;SDS011;37474;59.468;18.040;2023-07-09T02:10:32;3.07;;;2.70;;
50379;SDS011;37474;59.468;18.040;2023-07-09T02:13:01;2.63;;;2.43;;
50379;SDS011;37474;59.468;18.040;2023-07-09T02:15:30;3.93;;;2.70;;
50379;SDS011;37474;59.468;18.040;2023-07-09T02:17:59;3.20;;;2.70;;
50379;SDS011;37474;59.468;18.040;2023-07-09T02:20:28;5.97;;;2.95;;
50379;SDS011;37474;59.468;18.040;2023-07-09T02:22:57;3.77;;;2.80;;
50379;SDS011;37474;59.468;18.040;2023-07-09T02:25:28;5.27;;;2.80;;
50379;SDS011;37474;59.468;18.040;2023-07-09T02:30:25;2.87;;;2.47;;
50379;SDS011;37474;59.468;18.040;2023-07-09T02:32:54;5.07;;;2.90;;
50379;SDS011;37474;59.468;18.040;2023-07-09T02:35:23;5.27;;;2.77;;
50379;SDS011;37474;59.468;18.040;2023-07-09T02:37:52;3.50;;;3.00;;
50379;SDS011;37474;59.468;18.040;2023-07-09T02:40:20;6.67;;;2.80;;
50379;SDS011;37474;59.468;18.040;2023-07-09T02:42:51;3.73;;;2.73;;
50379;SDS011;37474;59.468;18.040;2023-07-09T02:45:19;6.60;;;2.80;;
50379;SDS011;37474;59.468;18.040;2023-07-09T02:47:49;5.20;;;2.60;;
50379;SDS011;37474;59.468;18.040;2023-07-09T02:50:18;3.73;;;2.80;;
50379;SDS011;37474;59.468;18.040;2023-07-09T02:52:47;3.97;;;2.70;;
50379;SDS011;37474;59.468;18.040;2023-07-09T02:55:15;3.10;;;2.80;;
50379;SDS011;37474;59.468;18.040;2023-07-09T02:57:44;3.47;;;2.83;;
50379;SDS011;37474;59.468;18.040;2023-07-09T03:00:15;3.20;;;2.83;;
50379;SDS011;37474;59.468;18.040;2023-07-09T03:02:44;3.90;;;3.03;;
50379;SDS011;37474;59.468;18.040;2023-07-09T03:05:13;4.73;;;3.00;;
50379;SDS011;37474;59.468;18.040;2023-07-09T03:07:42;3.10;;;2.40;;
50379;SDS011;37474;59.468;18.040;2023-07-09T03:10:11;3.40;;;2.80;;
50379;SDS011;37474;59.468;18.040;2023-07-09T03:12:40;3.17;;;2.87;;
50379;SDS011;37474;59.468;18.040;2023-07-09T03:15:09;2.73;;;2.47;;
50379;SDS011;37474;59.468;18.040;2023-07-09T03:17:39;3.20;;;2.90;;
50379;SDS011;37474;59.468;18.040;2023-07-09T03:20:08;4.47;;;2.65;;
50379;SDS011;37474;59.468;18.040;2023-07-09T03:22:38;3.45;;;2.40;;
50379;SDS011;37474;59.468;18.040;2023-07-09T03:25:07;2.73;;;2.40;;
50379;SDS011;37474;59.468;18.040;2023-07-09T03:27:35;2.75;;;2.42;;
50379;SDS011;37474;59.468;18.040;2023-07-09T03:30:05;4.15;;;2.80;;
50379;SDS011;37474;59.468;18.040;2023-07-09T03:32:34;3.80;;;2.70;;
50379;SDS011;37474;59.468;18.040;2023-07-09T03:35:04;3.35;;;2.38;;
50379;SDS011;37474;59.468;18.040;2023-07-09T03:37:33;5.57;;;2.55;;
50379;SDS011;37474;59.468;18.040;2023-07-09T03:40:05;3.70;;;2.40;;
50379;SDS011;37474;59.468;18.040;2023-07-09T03:45:03;4.32;;;2.53;;
50379;SDS011;37474;59.468;18.040;2023-07-09T03:47:32;2.83;;;2.60;;
50379;SDS011;37474;59.468;18.040;2023-07-09T03:50:01;3.75;;;2.50;;
50379;SDS011;37474;59.468;18.040;2023-07-09T03:52:31;3.00;;;2.70;;
50379;SDS011;37474;59.468;18.040;2023-07-09T03:55:00;3.70;;;2.63;;
50379;SDS011;37474;59.468;18.040;2023-07-09T03:59:59;2.97;;;2.72;;
50379;SDS011;37474;59.468;18.040;2023-07-09T04:02:28;4.45;;;2.80;;
50379;SDS011;37474;59.468;18.040;2023-07-09T04:04:57;4.25;;;3.13;;
50379;SDS011;37474;59.468;18.040;2023-07-09T04:07:25;5.05;;;3.22;;
50379;SDS011;37474;59.468;18.040;2023-07-09T04:09:55;4.00;;;3.60;;
50379;SDS011;37474;59.468;18.040;2023-07-09T04:12:24;6.82;;;4.45;;
50379;SDS011;37474;59.468;18.040;2023-07-09T04:14:53;5.68;;;4.22;;
50379;SDS011;37474;59.468;18.040;2023-07-09T04:17:22;4.35;;;3.63;;
50379;SDS011;37474;59.468;18.040;2023-07-09T04:19:51;5.63;;;4.10;;
50379;SDS011;37474;59.468;18.040;2023-07-09T04:22:21;7.05;;;3.90;;
50379;SDS011;37474;59.468;18.040;2023-07-09T04:24:49;7.13;;;3.70;;
50379;SDS011;37474;59.468;18.040;2023-07-09T04:27:20;5.18;;;4.00;;
50379;SDS011;37474;59.468;18.040;2023-07-09T04:29:54;7.32;;;3.60;;
50379;SDS011;37474;59.468;18.040;2023-07-09T04:32:22;3.80;;;3.42;;
50379;SDS011;37474;59.468;18.040;2023-07-09T04:34:51;3.85;;;3.50;;
50379;SDS011;37474;59.468;18.040;2023-07-09T04:37:20;5.75;;;3.22;;
50379;SDS011;37474;59.468;18.040;2023-07-09T04:39:49;5.20;;;3.25;;
50379;SDS011;37474;59.468;18.040;2023-07-09T04:42:18;5.32;;;3.78;;
50379;SDS011;37474;59.468;18.040;2023-07-09T04:44:48;6.18;;;4.15;;
50379;SDS011;37474;59.468;18.040;2023-07-09T04:47:16;5.05;;;4.10;;
50379;SDS011;37474;59.468;18.040;2023-07-09T04:49:45;6.72;;;4.10;;
50379;SDS011;37474;59.468;18.040;2023-07-09T04:52:14;4.50;;;3.65;;
50379;SDS011;37474;59.468;18.040;2023-07-09T04:54:43;6.47;;;4.15;;
50379;SDS011;37474;59.468;18.040;2023-07-09T04:57:11;4.35;;;3.75;;
50379;SDS011;37474;59.468;18.040;2023-07-09T04:59:42;4.60;;;3.80;;
50379;SDS011;37474;59.468;18.040;2023-07-09T05:04:39;6.45;;;3.80;;
50379;SDS011;37474;59.468;18.040;2023-07-09T05:07:08;6.28;;;3.72;;
50379;SDS011;37474;59.468;18.040;2023-07-09T05:09:36;4.75;;;3.50;;
50379;SDS011;37474;59.468;18.040;2023-07-09T05:12:06;5.00;;;3.25;;
50379;SDS011;37474;59.468;18.040;2023-07-09T05:14:35;4.20;;;3.80;;
50379;SDS011;37474;59.468;18.040;2023-07-09T05:17:06;4.88;;;3.75;;
50379;SDS011;37474;59.468;18.040;2023-07-09T05:19:35;5.57;;;3.60;;
50379;SDS011;37474;59.468;18.040;2023-07-09T05:22:04;4.50;;;3.60;;
50379;SDS011;37474;59.468;18.040;2023-07-09T05:24:33;4.60;;;3.80;;
50379;SDS011;37474;59.468;18.040;2023-07-09T05:27:02;4.05;;;3.65;;
50379;SDS011;37474;59.468;18.040;2023-07-09T05:29:31;4.15;;;3.50;;
50379;SDS011;37474;59.468;18.040;2023-07-09T05:32:00;4.43;;;4.03;;
50379;SDS011;37474;59.468;18.040;2023-07-09T05:34:30;5.25;;;4.47;;
50379;SDS011;37474;59.468;18.040;2023-07-09T05:39:27;5.95;;;3.53;;
50379;SDS011;37474;59.468;18.040;2023-07-09T05:41:56;4.80;;;3.55;;
50379;SDS011;37474;59.468;18.040;2023-07-09T05:44:24;4.22;;;3.83;;
50379;SDS011;37474;59.468;18.040;2023-07-09T05:46:53;5.07;;;3.30;;
50379;SDS011;37474;59.468;18.040;2023-07-09T05:49:22;3.65;;;3.22;;
50379;SDS011;37474;59.468;18.040;2023-07-09T05:51:52;5.68;;;3.22;;
50379;SDS011;37474;59.468;18.040;2023-07-09T05:56:49;3.83;;;3.30;;
50379;SDS011;37474;59.468;18.040;2023-07-09T05:59:19;3.58;;;3.13;;
50379;SDS011;37474;59.468;18.040;2023-07-09T06:01:47;4.97;;;3.15;;
50379;SDS011;37474;59.468;18.040;2023-07-09T06:04:16;4.72;;;3.45;;
50379;SDS011;37474;59.468;18.040;2023-07-09T06:06:45;3.75;;;3.17;;
50379;SDS011;37474;59.468;18.040;2023-07-09T06:09:15;3.83;;;3.33;;
50379;SDS011;37474;59.468;18.040;2023-07-09T06:11:44;3.35;;;3.00;;
50379;SDS011;37474;59.468;18.040;2023-07-09T06:14:13;4.65;;;3.40;;
50379;SDS011;37474;59.468;18.040;2023-07-09T06:16:43;4.30;;;3.20;;
50379;SDS011;37474;59.468;18.040;2023-07-09T06:19:12;3.92;;;3.17;;
50379;SDS011;37474;59.468;18.040;2023-07-09T06:21:41;5.15;;;3.55;;
50379;SDS011;37474;59.468;18.040;2023-07-09T06:24:10;4.90;;;3.60;;
50379;SDS011;37474;59.468;18.040;2023-07-09T06:26:40;4.15;;;3.67;;
50379;SDS011;37474;59.468;18.040;2023-07-09T06:29:09;3.88;;;3.50;;
50379;SDS011;37474;59.468;18.040;2023-07-09T06:31:38;4.95;;;3.38;;
50379;SDS011;37474;59.468;18.040;2023-07-09T06:34:07;3.72;;;3.00;;
50379;SDS011;37474;59.468;18.040;2023-07-09T06:36:36;3.20;;;2.90;;
50379;SDS011;37474;59.468;18.040;2023-07-09T06:39:04;3.15;;;2.75;;
50379;SDS011;37474;59.468;18.040;2023-07-09T06:41:33;3.75;;;3.10;;
50379;SDS011;37474;59.468;18.040;2023-07-09T06:44:07;3.38;;;2.95;;
50379;SDS011;37474;59.468;18.040;2023-07-09T06:46:37;2.75;;;2.40;;
50379;SDS011;37474;59.468;18.040;2023-07-09T06:49:06;3.40;;;2.72;;
50379;SDS011;37474;59.468;18.040;2023-07-09T06:51:35;6.10;;;2.72;;
50379;SDS011;37474;59.468;18.040;2023-07-09T06:54:04;3.50;;;2.70;;
50379;SDS011;37474;59.468;18.040;2023-07-09T06:56:35;3.88;;;2.40;;
50379;SDS011;37474;59.468;18.040;2023-07-09T06:59:04;2.35;;;2.15;;
50379;SDS011;37474;59.468;18.040;2023-07-09T07:01:34;2.90;;;2.67;;
50379;SDS011;37474;59.468;18.040;2023-07-09T07:04:03;2.90;;;2.60;;
50379;SDS011;37474;59.468;18.040;2023-07-09T07:06:32;3.25;;;2.60;;
50379;SDS011;37474;59.468;18.040;2023-07-09T07:09:01;5.82;;;2.92;;
50379;SDS011;37474;59.468;18.040;2023-07-09T07:11:30;3.35;;;2.63;;
50379;SDS011;37474;59.468;18.040;2023-07-09T07:13:59;4.32;;;2.80;;
50379;SDS011;37474;59.468;18.040;2023-07-09T07:16:28;3.25;;;2.75;;
50379;SDS011;37474;59.468;18.040;2023-07-09T07:18:58;4.20;;;2.60;;
50379;SDS011;37474;59.468;18.040;2023-07-09T07:23:55;2.70;;;2.33;;
50379;SDS011;37474;59.468;18.040;2023-07-09T07:26:24;10.98;;;6.70;;
50379;SDS011;37474;59.468;18.040;2023-07-09T07:28:53;5.78;;;3.47;;
50379;SDS011;37474;59.468;18.040;2023-07-09T07:31:22;2.80;;;2.33;;
50379;SDS011;37474;59.468;18.040;2023-07-09T07:33:50;2.80;;;2.40;;
50379;SDS011;37474;59.468;18.040;2023-07-09T07:36:21;2.30;;;2.10;;
50379;SDS011;37474;59.468;18.040;2023-07-09T07:38:57;3.05;;;2.60;;
50379;SDS011;37474;59.468;18.040;2023-07-09T07:41:26;3.50;;;2.50;;
50379;SDS011;37474;59.468;18.040;2023-07-09T07:43:54;4.35;;;2.10;;
50379;SDS011;37474;59.468;18.040;2023-07-09T07:46:23;3.53;;;2.03;;
50379;SDS011;37474;59.468;18.040;2023-07-09T07:48:52;2.55;;;2.10;;
50379;SDS011;37474;59.468;18.040;2023-07-09T07:51:22;2.90;;;2.10;;
50379;SDS011;37474;59.468;18.040;2023-07-09T07:56:20;3.28;;;2.10;;
50379;SDS011;37474;59.468;18.040;2023-07-09T07:58:48;4.47;;;2.40;;
50379;SDS011;37474;59.468;18.040;2023-07-09T08:01:17;5.05;;;2.50;;
50379;SDS011;37474;59.468;18.040;2023-07-09T08:03:46;3.22;;;2.28;;
50379;SDS011;37474;59.468;18.040;2023-07-09T08:06:15;2.25;;;2.00;;
50379;SDS011;37474;59.468;18.040;2023-07-09T08:08:45;2.75;;;2.20;;
50379;SDS011;37474;59.468;18.040;2023-07-09T08:11:14;2.88;;;2.20;;
50379;SDS011;37474;59.468;18.040;2023-07-09T08:13:43;2.30;;;2.10;;
50379;SDS011;37474;59.468;18.040;2023-07-09T08:16:12;2.47;;;2.27;;
50379;SDS011;37474;59.468;18.040;2023-07-09T08:18:44;2.40;;;2.20;;
50379;SDS011;37474;59.468;18.040;2023-07-09T08:21:13;2.65;;;2.13;;
50379;SDS011;37474;59.468;18.040;2023-07-09T08:23:42;2.78;;;2.22;;
50379;SDS011;37474;59.468;18.040;2023-07-09T08:26:12;2.63;;;1.95;;
50379;SDS011;37474;59.468;18.040;2023-07-09T08:28:41;1.85;;;1.73;;
50379;SDS011;37474;59.468;18.040;2023-07-09T08:31:10;1.95;;;1.77;;
50379;SDS011;37474;59.468;18.040;2023-07-09T08:33:39;2.50;;;1.88;;
50379;SDS011;37474;59.468;18.040;2023-07-09T08:36:08;2.08;;;1.88;;
50379;SDS011;37474;59.468;18.040;2023-07-09T08:38:36;3.10;;;1.90;;
50379;SDS011;37474;59.468;18.040;2023-07-09T08:41:07;3.83;;;1.90;;
50379;SDS011;37474;59.468;18.040;2023-07-09T08:43:46;2.67;;;1.80;;
50379;SDS011;37474;59.468;18.040;2023-07-09T08:46:24;1.92;;;1.73;;
50379;SDS011;37474;59.468;18.040;2023-07-09T08:48:58;2.10;;;1.90;;
50379;SDS011;37474;59.468;18.040;2023-07-09T08:51:33;3.20;;;1.80;;
50379;SDS011;37474;59.468;18.040;2023-07-09T08:54:08;1.92;;;1.60;;
50379;SDS011;37474;59.468;18.040;2023-07-09T08:56:42;2.88;;;1.70;;
50379;SDS011;37474;59.468;18.040;2023-07-09T08:59:14;2.45;;;1.60;;
50379;SDS011;37474;59.468;18.040;2023-07-09T09:01:53;1.88;;;1.60;;
50379;SDS011;37474;59.468;18.040;2023-07-09T09:04:27;3.95;;;1.88;;
50379;SDS011;37474;59.468;18.040;2023-07-09T09:06:59;1.75;;;1.55;;
50379;SDS011;37474;59.468;18.040;2023-07-09T09:09:46;2.20;;;1.50;;
50379;SDS011;37474;59.468;18.040;2023-07-09T09:12:25;1.88;;;1.60;;
50379;SDS011;37474;59.468;18.040;2023-07-09T09:14:59;3.17;;;2.20;;
50379;SDS011;37474;59.468;18.040;2023-07-09T09:17:32;2.33;;;1.30;;
50379;SDS011;37474;59.468;18.040;2023-07-09T09:20:04;1.60;;;1.27;;
50379;SDS011;37474;59.468;18.040;2023-07-09T09:22:39;4.03;;;1.25;;
50379;SDS011;37474;59.468;18.040;2023-07-09T09:25:16;1.73;;;1.30;;
50379;SDS011;37474;59.468;18.040;2023-07-09T09:27:50;1.85;;;0.93;;
50379;SDS011;37474;59.468;18.040;2023-07-09T09:30:21;1.70;;;1.20;;
50379;SDS011;37474;59.468;18.040;2023-07-09T09:32:53;5.53;;;1.02;;
50379;SDS011;37474;59.468;18.040;2023-07-09T09:35:27;1.85;;;1.23;;
50379;SDS011;37474;59.468;18.040;2023-07-09T09:37:58;1.40;;;1.13;;
50379;SDS011;37474;59.468;18.040;2023-07-09T09:42:57;2.33;;;1.10;;
50379;SDS011;37474;59.468;18.040;2023-07-09T09:45:33;2.75;;;1.50;;
50379;SDS011;37474;59.468;18.040;2023-07-09T09:48:09;1.95;;;1.20;;
50379;SDS011;37474;59.468;18.040;2023-07-09T09:50:43;2.95;;;1.40;;
50379;SDS011;37474;59.468;18.040;2023-07-09T09:53:18;2.13;;;1.30;;
50379;SDS011;37474;59.468;18.040;2023-07-09T09:55:48;2.85;;;1.20;;
50379;SDS011;37474;59.468;18.040;2023-07-09T09:58:19;3.92;;;1.20;;
50379;SDS011;37474;59.468;18.040;2023-07-09T10:00:50;1.10;;;1.00;;
50379;SDS011;37474;59.468;18.040;2023-07-09T10:03:20;3.42;;;1.33;;
50379;SDS011;37474;59.468;18.040;2023-07-09T10:05:50;1.92;;;1.40;;
50379;SDS011;37474;59.468;18.040;2023-07-09T10:08:26;1.40;;;1.30;;
50379;SDS011;37474;59.468;18.040;2023-07-09T10:11:07;1.63;;;1.10;;
50379;SDS011;37474;59.468;18.040;2023-07-09T10:13:44;2.50;;;1.25;;
50379;SDS011;37474;59.468;18.040;2023-07-09T10:16:19;1.33;;;1.20;;
50379;SDS011;37474;59.468;18.040;2023-07-09T10:18:58;2.47;;;1.40;;
50379;SDS011;37474;59.468;18.040;2023-07-09T10:21:36;1.63;;;1.30;;
50379;SDS011;37474;59.468;18.040;2023-07-09T10:24:16;1.88;;;1.50;;
50379;SDS011;37474;59.468;18.040;2023-07-09T10:26:59;1.75;;;1.30;;
50379;SDS011;37474;59.468;18.040;2023-07-09T10:29:38;2.30;;;1.08;;
50379;SDS011;37474;59.468;18.040;2023-07-09T10:32:24;4.22;;;1.42;;
50379;SDS011;37474;59.468;18.040;2023-07-09T10:35:09;1.55;;;1.20;;
50379;SDS011;37474;59.468;18.040;2023-07-09T10:37:50;2.78;;;1.23;;
50379;SDS011;37474;59.468;18.040;2023-07-09T10:40:30;2.38;;;1.23;;
50379;SDS011;37474;59.468;18.040;2023-07-09T10:43:04;1.20;;;1.10;;
50379;SDS011;37474;59.468;18.040;2023-07-09T10:45:39;4.68;;;1.40;;
50379;SDS011;37474;59.468;18.040;2023-07-09T10:48:14;1.20;;;1.05;;
50379;SDS011;37474;59.468;18.040;2023-07-09T10:50:47;1.80;;;1.27;;
50379;SDS011;37474;59.468;18.040;2023-07-09T10:53:24;1.95;;;1.20;;
50379;SDS011;37474;59.468;18.040;2023-07-09T10:56:00;1.77;;;1.10;;
50379;SDS011;37474;59.468;18.040;2023-07-09T10:58:35;1.70;;;1.40;;
50379;SDS011;37474;59.468;18.040;2023-07-09T11:01:09;1.20;;;1.10;;
50379;SDS011;37474;59.468;18.040;2023-07-09T11:03:44;2.85;;;1.10;;
50379;SDS011;37474;59.468;18.040;2023-07-09T11:06:21;1.10;;;0.97;;
50379;SDS011;37474;59.468;18.040;2023-07-09T11:08:55;3.45;;;1.02;;
50379;SDS011;37474;59.468;18.040;2023-07-09T11:11:28;1.85;;;1.00;;
50379;SDS011;37474;59.468;18.040;2023-07-09T11:14:02;1.80;;;1.05;;
50379;SDS011;37474;59.468;18.040;2023-07-09T11:16:39;1.38;;;1.10;;
50379;SDS011;37474;59.468;18.040;2023-07-09T11:19:15;1.45;;;1.20;;
50379;SDS011;37474;59.468;18.040;2023-07-09T11:21:57;2.65;;;1.10;;
50379;SDS011;37474;59.468;18.040;2023-07-09T11:24:32;1.17;;;1.08;;
50379;SDS011;37474;59.468;18.040;2023-07-09T11:27:17;2.42;;;1.20;;
50379;SDS011;37474;59.468;18.040;2023-07-09T11:29:48;2.65;;;1.30;;
50379;SDS011;37474;59.468;18.040;2023-07-09T11:32:24;2.30;;;1.20;;
50379;SDS011;37474;59.468;18.040;2023-07-09T11:35:05;1.10;;;1.00;;
50379;SDS011;37474;59.468;18.040;2023-07-09T11:37:44;4.70;;;1.15;;
50379;SDS011;37474;59.468;18.040;2023-07-09T11:40:14;4.10;;;1.30;;
50379;SDS011;37474;59.468;18.040;2023-07-09T11:42:52;1.75;;;0.93;;
50379;SDS011;37474;59.468;18.040;2023-07-09T11:45:24;1.00;;;0.90;;
50379;SDS011;37474;59.468;18.040;2023-07-09T11:47:59;1.92;;;1.10;;
50379;SDS011;37474;59.468;18.040;2023-07-09T11:50:36;1.73;;;1.10;;
50379;SDS011;37474;59.468;18.040;2023-07-09T11:53:16;1.15;;;1.00;;
50379;SDS011;37474;59.468;18.040;2023-07-09T11:55:57;1.50;;;0.88;;
50379;SDS011;37474;59.468;18.040;2023-07-09T11:58:26;2.17;;;0.93;;
50379;SDS011;37474;59.468;18.040;2023-07-09T12:00:55;1.65;;;1.20;;
50379;SDS011;37474;59.468;18.040;2023-07-09T12:03:26;1.15;;;1.00;;
50379;SDS011;37474;59.468;18.040;2023-07-09T12:06:01;1.00;;;0.90;;
50379;SDS011;37474;59.468;18.040;2023-07-09T12:08:34;2.58;;;1.23;;
50379;SDS011;37474;59.468;18.040;2023-07-09T12:11:04;1.55;;;0.95;;
50379;SDS011;37474;59.468;18.040;2023-07-09T12:13:38;2.63;;;1.08;;
50379;SDS011;37474;59.468;18.040;2023-07-09T12:16:18;0.98;;;0.90;;
50379;SDS011;37474;59.468;18.040;2023-07-09T12:18:49;3.65;;;1.20;;
50379;SDS011;37474;59.468;18.040;2023-07-09T12:21:19;1.00;;;0.80;;
50379;SDS011;37474;59.468;18.040;2023-07-09T12:23:49;2.97;;;1.02;;
50379;SDS011;37474;59.468;18.040;2023-07-09T12:26:19;3.80;;;1.10;;
50379;SDS011;37474;59.468;18.040;2023-07-09T12:28:51;2.17;;;1.08;;
50379;SDS011;37474;59.468;18.040;2023-07-09T12:31:21;2.17;;;1.13;;
50379;SDS011;37474;59.468;18.040;2023-07-09T12:33:55;1.10;;;1.00;;
50379;SDS011;37474;59.468;18.040;2023-07-09T12:36:27;1.45;;;1.00;;
50379;SDS011;37474;59.468;18.040;2023-07-09T12:38:59;1.50;;;1.00;;
50379;SDS011;37474;59.468;18.040;2023-07-09T12:41:32;2.15;;;1.15;;
50379;SDS011;37474;59.468;18.040;2023-07-09T12:44:04;1.35;;;0.98;;
50379;SDS011;37474;59.468;18.040;2023-07-09T12:46:33;1.45;;;1.10;;
50379;SDS011;37474;59.468;18.040;2023-07-09T12:49:04;1.17;;;1.08;;
50379;SDS011;37474;59.468;18.040;2023-07-09T12:51:35;1.23;;;1.10;;
50379;SDS011;37474;59.468;18.040;2023-07-09T12:54:10;1.70;;;1.13;;
50379;SDS011;37474;59.468;18.040;2023-07-09T12:56:42;1.60;;;1.20;;
50379;SDS011;37474;59.468;18.040;2023-07-09T12:59:18;2.65;;;1.10;;
50379;SDS011;37474;59.468;18.040;2023-07-09T13:01:48;2.85;;;1.38;;
50379;SDS011;37474;59.468;18.040;2023-07-09T13:04:18;1.30;;;1.20;;
50379;SDS011;37474;59.468;18.040;2023-07-09T13:06:52;2.03;;;1.00;;
50379;SDS011;37474;59.468;18.040;2023-07-09T13:09:26;2.97;;;1.20;;
50379;SDS011;37474;59.468;18.040;2023-07-09T13:11:57;2.75;;;1.30;;
50379;SDS011;37474;59.468;18.040;2023-07-09T13:14:27;2.83;;;0.90;;
50379;SDS011;37474;59.468;18.040;2023-07-09T13:17:02;1.40;;;1.30;;
50379;SDS011;37474;59.468;18.040;2023-07-09T13:19:32;3.22;;;1.35;;
50379;SDS011;37474;59.468;18.040;2023-07-09T13:22:03;1.55;;;1.20;;
50379;SDS011;37474;59.468;18.040;2023-07-09T13:24:33;1.30;;;1.20;;
50379;SDS011;37474;59.468;18.040;2023-07-09T13:27:03;1.10;;;1.00;;
50379;SDS011;37474;59.468;18.040;2023-07-09T13:29:33;1.30;;;1.20;;
50379;SDS011;37474;59.468;18.040;2023-07-09T13:32:02;2.30;;;1.15;;
50379;SDS011;37474;59.468;18.040;2023-07-09T13:34:36;2.10;;;1.10;;
50379;SDS011;37474;59.468;18.040;2023-07-09T13:37:08;1.80;;;1.10;;
50379;SDS011;37474;59.468;18.040;2023-07-09T13:39:39;1.48;;;1.30;;
50379;SDS011;37474;59.468;18.040;2023-07-09T13:44:40;2.53;;;1.30;;
50379;SDS011;37474;59.468;18.040;2023-07-09T13:47:11;1.98;;;1.10;;
50379;SDS011;37474;59.468;18.040;2023-07-09T13:49:43;2.38;;;1.20;;
50379;SDS011;37474;59.468;18.040;2023-07-09T13:52:16;1.45;;;1.00;;
50379;SDS011;37474;59.468;18.040;2023-07-09T13:54:47;3.85;;;1.63;;
50379;SDS011;37474;59.468;18.040;2023-07-09T13:57:18;3.15;;;1.42;;
50379;SDS011;37474;59.468;18.040;2023-07-09T13:59:49;1.40;;;1.30;;
50379;SDS011;37474;59.468;18.040;2023-07-09T14:02:22;1.03;;;0.93;;
50379;SDS011;37474;59.468;18.040;2023-07-09T14:04:59;3.13;;;1.38;;
50379;SDS011;37474;59.468;18.040;2023-07-09T14:07:32;2.83;;;1.13;;
50379;SDS011;37474;59.468;18.040;2023-07-09T14:10:07;1.75;;;1.15;;
50379;SDS011;37474;59.468;18.040;2023-07-09T14:12:41;2.03;;;1.10;;
50379;SDS011;37474;59.468;18.040;2023-07-09T14:15:14;2.38;;;1.48;;
50379;SDS011;37474;59.468;18.040;2023-07-09T14:17:45;2.50;;;1.45;;
50379;SDS011;37474;59.468;18.040;2023-07-09T14:20:16;1.70;;;1.40;;
50379;SDS011;37474;59.468;18.040;2023-07-09T14:22:49;1.85;;;1.40;;
50379;SDS011;37474;59.468;18.040;2023-07-09T14:25:20;3.95;;;1.20;;
50379;SDS011;37474;59.468;18.040;2023-07-09T14:27:50;2.47;;;1.42;;
50379;SDS011;37474;59.468;18.040;2023-07-09T14:30:23;2.00;;;1.10;;
50379;SDS011;37474;59.468;18.040;2023-07-09T14:32:55;1.70;;;1.27;;
50379;SDS011;37474;59.468;18.040;2023-07-09T14:35:26;2.03;;;1.40;;
50379;SDS011;37474;59.468;18.040;2023-07-09T14:37:57;3.47;;;1.40;;
50379;SDS011;37474;59.468;18.040;2023-07-09T14:40:27;1.65;;;1.48;;
50379;SDS011;37474;59.468;18.040;2023-07-09T14:42:58;1.50;;;1.40;;
50379;SDS011;37474;59.468;18.040;2023-07-09T14:45:30;2.17;;;1.50;;
50379;SDS011;37474;59.468;18.040;2023-07-09T14:48:00;2.35;;;1.40;;
50379;SDS011;37474;59.468;18.040;2023-07-09T14:50:29;1.92;;;1.30;;
50379;SDS011;37474;59.468;18.040;2023-07-09T14:55:32;1.85;;;1.42;;
50379;SDS011;37474;59.468;18.040;2023-07-09T14:58:04;1.33;;;1.23;;
50379;SDS011;37474;59.468;18.040;2023-07-09T15:00:42;2.05;;;1.50;;
50379;SDS011;37474;59.468;18.040;2023-07-09T15:03:15;2.90;;;1.30;;
50379;SDS011;37474;59.468;18.040;2023-07-09T15:05:49;3.70;;;1.45;;
50379;SDS011;37474;59.468;18.040;2023-07-09T15:08:22;2.78;;;1.30;;
50379;SDS011;37474;59.468;18.040;2023-07-09T15:10:53;1.88;;;1.60;;
50379;SDS011;37474;59.468;18.040;2023-07-09T15:13:25;1.60;;;1.20;;
50379;SDS011;37474;59.468;18.040;2023-07-09T15:15:59;1.70;;;1.35;;
50379;SDS011;37474;59.468;18.040;2023-07-09T15:18:29;1.73;;;1.23;;
50379;SDS011;37474;59.468;18.040;2023-07-09T15:21:01;2.45;;;1.20;;
50379;SDS011;37474;59.468;18.040;2023-07-09T15:23:35;1.30;;;1.02;;
50379;SDS011;37474;59.468;18.040;2023-07-09T15:26:11;1.90;;;1.20;;
50379;SDS011;37474;59.468;18.040;2023-07-09T15:28:43;2.28;;;1.45;;
50379;SDS011;37474;59.468;18.040;2023-07-09T15:31:16;1.70;;;1.40;;